sensor_id;sensor_type;location;lat;lon;timestamp;temperature;humidity
15922;DHT22;8060;50.948;3.146;2023-01-09T08:24:30;7.50;99.90
15922;DHT22;8060;50.948;3.146;2023-01-09T08:26:59;7.40;99.90
15922;DHT22;8060;50.948;3.146;2023-01-09T08:29:27;7.50;99.90
15922;DHT22;8060;50.948;3.146;2023-01-09T08:31:56;7.50;99.90
15922;DHT22;8060;50.948;3.146;2023-01-09T08:34:24;7.50;99.90
15922;DHT22;8060;50.948;3.146;2023-01-09T08:36:52;7.60;99.90
15922;DHT22;8060;50.948;3.146;2023-01-09T08:39:20;7.60;99.90
15922;DHT22;8060;50.948;3.146;2023-01-09T08:41:49;7.60;99.90
15922;DHT22;8060;50.948;3.146;2023-01-09T08:44:35;7.70;99.90
15922;DHT22;8060;50.948;3.146;2023-01-09T08:47:22;7.70;99.90
15922;DHT22;8060;50.948;3.146;2023-01-09T08:49:50;7.70;99.90
15922;DHT22;8060;50.948;3.146;2023-01-09T08:52:19;7.80;99.90
15922;DHT22;8060;50.948;3.146;2023-01-09T08:54:47;7.80;99.90
15922;DHT22;8060;50.948;3.146;2023-01-09T08:57:16;7.80;99.90
15922;DHT22;8060;50.948;3.146;2023-01-09T08:59:44;7.80;99.90
15922;DHT22;8060;50.948;3.146;2023-01-09T09:02:12;7.90;99.90
15922;DHT22;8060;50.948;3.146;2023-01-09T09:04:41;7.90;99.90
15922;DHT22;8060;50.948;3.146;2023-01-09T09:23:23;8.20;99.90
15922;DHT22;8060;50.948;3.146;2023-01-09T09:25:52;8.00;99.90
15922;DHT22;8060;50.948;3.146;2023-01-09T09:28:20;8.00;99.90
15922;DHT22;8060;50.948;3.146;2023-01-09T09:30:48;8.00;99.90
15922;DHT22;8060;50.948;3.146;2023-01-09T09:33:16;8.00;99.90
15922;DHT22;8060;50.948;3.146;2023-01-09T09:35:45;8.00;99.90
15922;DHT22;8060;50.948;3.146;2023-01-09T09:42:17;8.20;99.90
15922;DHT22;8060;50.948;3.146;2023-01-09T09:45:18;8.20;99.90
15922;DHT22;8060;50.948;3.146;2023-01-09T09:47:58;8.20;99.90
15922;DHT22;8060;50.948;3.146;2023-01-09T09:51:01;8.20;99.90
15922;DHT22;8060;50.948;3.146;2023-01-09T09:53:35;8.20;99.90
15922;DHT22;8060;50.948;3.146;2023-01-09T09:58:36;8.10;99.90
15922;DHT22;8060;50.948;3.146;2023-01-09T10:01:06;8.20;99.90
15922;DHT22;8060;50.948;3.146;2023-01-09T10:03:37;8.20;99.90
15922;DHT22;8060;50.948;3.146;2023-01-09T10:06:10;8.20;99.90
15922;DHT22;8060;50.948;3.146;2023-01-09T10:08:44;8.30;99.90
15922;DHT22;8060;50.948;3.146;2023-01-09T10:11:18;8.20;99.90
15922;DHT22;8060;50.948;3.146;2023-01-09T10:13:48;8.20;99.90
15922;DHT22;8060;50.948;3.146;2023-01-09T10:16:53;8.20;99.90
15922;DHT22;8060;50.948;3.146;2023-01-09T10:19:33;8.30;99.90
15922;DHT22;8060;50.948;3.146;2023-01-09T10:22:12;8.30;99.90
15922;DHT22;8060;50.948;3.146;2023-01-09T10:24:56;8.40;99.90
15922;DHT22;8060;50.948;3.146;2023-01-09T10:27:36;8.40;99.90
15922;DHT22;8060;50.948;3.146;2023-01-09T10:30:23;8.50;99.90
15922;DHT22;8060;50.948;3.146;2023-01-09T10:32:58;8.50;99.90
15922;DHT22;8060;50.948;3.146;2023-01-09T10:38:32;8.50;99.90
15922;DHT22;8060;50.948;3.146;2023-01-09T10:41:05;8.60;99.90
15922;DHT22;8060;50.948;3.146;2023-01-09T10:43:41;8.60;99.90
15922;DHT22;8060;50.948;3.146;2023-01-09T10:46:16;8.70;99.90
15922;DHT22;8060;50.948;3.146;2023-01-09T10:48:49;8.80;99.90
15922;DHT22;8060;50.948;3.146;2023-01-09T10:51:21;8.80;99.90
15922;DHT22;8060;50.948;3.146;2023-01-09T10:53:53;8.80;99.90
15922;DHT22;8060;50.948;3.146;2023-01-09T10:56:23;8.90;99.90
15922;DHT22;8060;50.948;3.146;2023-01-09T10:58:53;8.90;99.90
15922;DHT22;8060;50.948;3.146;2023-01-09T11:01:26;8.90;99.90
15922;DHT22;8060;50.948;3.146;2023-01-09T11:03:55;9.00;99.90
15922;DHT22;8060;50.948;3.146;2023-01-09T11:06:30;9.00;99.90
15922;DHT22;8060;50.948;3.146;2023-01-09T11:09:00;9.00;99.90
15922;DHT22;8060;50.948;3.146;2023-01-09T11:11:31;9.10;99.90
15922;DHT22;8060;50.948;3.146;2023-01-09T11:14:05;9.30;99.90
15922;DHT22;8060;50.948;3.146;2023-01-09T11:16:35;9.50;99.90
15922;DHT22;8060;50.948;3.146;2023-01-09T11:19:03;9.60;99.90
15922;DHT22;8060;50.948;3.146;2023-01-09T11:21:33;9.70;99.90
15922;DHT22;8060;50.948;3.146;2023-01-09T11:24:30;9.80;99.90
15922;DHT22;8060;50.948;3.146;2023-01-09T11:27:23;9.90;99.90
15922;DHT22;8060;50.948;3.146;2023-01-09T11:30:20;10.30;99.90
15922;DHT22;8060;50.948;3.146;2023-01-09T11:32:56;10.80;99.90
15922;DHT22;8060;50.948;3.146;2023-01-09T11:35:27;11.10;99.90
15922;DHT22;8060;50.948;3.146;2023-01-09T11:38:04;11.40;99.90
15922;DHT22;8060;50.948;3.146;2023-01-09T11:40:43;11.70;99.90
15922;DHT22;8060;50.948;3.146;2023-01-09T11:43:15;12.00;99.90
15922;DHT22;8060;50.948;3.146;2023-01-09T11:45:48;12.10;99.90
15922;DHT22;8060;50.948;3.146;2023-01-09T11:48:53;11.90;99.90
15922;DHT22;8060;50.948;3.146;2023-01-09T11:51:24;12.00;99.90
15922;DHT22;8060;50.948;3.146;2023-01-09T11:54:13;12.40;99.90
15922;DHT22;8060;50.948;3.146;2023-01-09T11:56:43;12.80;99.90
15922;DHT22;8060;50.948;3.146;2023-01-09T11:59:13;13.00;99.90
15922;DHT22;8060;50.948;3.146;2023-01-09T12:02:10;12.90;99.90
15922;DHT22;8060;50.948;3.146;2023-01-09T12:04:51;12.60;99.90
15922;DHT22;8060;50.948;3.146;2023-01-09T12:10:40;11.70;99.90
15922;DHT22;8060;50.948;3.146;2023-01-09T12:13:20;11.30;99.90
15922;DHT22;8060;50.948;3.146;2023-01-09T12:15:57;11.20;99.90
15922;DHT22;8060;50.948;3.146;2023-01-09T12:18:37;11.50;99.90
15922;DHT22;8060;50.948;3.146;2023-01-09T12:21:31;11.80;99.90
15922;DHT22;8060;50.948;3.146;2023-01-09T12:24:22;12.30;99.90
15922;DHT22;8060;50.948;3.146;2023-01-09T12:27:04;12.30;99.90
15922;DHT22;8060;50.948;3.146;2023-01-09T12:29:52;11.80;99.90
15922;DHT22;8060;50.948;3.146;2023-01-09T12:32:35;11.60;99.90
15922;DHT22;8060;50.948;3.146;2023-01-09T12:35:16;11.30;99.90
15922;DHT22;8060;50.948;3.146;2023-01-09T12:38:10;11.20;99.90
15922;DHT22;8060;50.948;3.146;2023-01-09T12:41:05;12.10;99.90
15922;DHT22;8060;50.948;3.146;2023-01-09T12:43:43;13.30;99.90
15922;DHT22;8060;50.948;3.146;2023-01-09T12:46:17;14.10;99.90
15922;DHT22;8060;50.948;3.146;2023-01-09T12:49:07;14.50;99.90
15922;DHT22;8060;50.948;3.146;2023-01-09T12:51:40;15.00;99.90
15922;DHT22;8060;50.948;3.146;2023-01-09T12:54:15;15.20;99.90
15922;DHT22;8060;50.948;3.146;2023-01-09T12:56:49;15.10;99.90
15922;DHT22;8060;50.948;3.146;2023-01-09T12:59:26;15.40;99.90
15922;DHT22;8060;50.948;3.146;2023-01-09T13:02:04;15.30;99.90
15922;DHT22;8060;50.948;3.146;2023-01-09T13:04:40;15.70;99.90
15922;DHT22;8060;50.948;3.146;2023-01-09T13:07:15;16.10;99.90
15922;DHT22;8060;50.948;3.146;2023-01-09T13:09:49;16.40;99.90
15922;DHT22;8060;50.948;3.146;2023-01-09T13:12:22;16.60;99.90
15922;DHT22;8060;50.948;3.146;2023-01-09T13:14:55;16.90;99.90
15922;DHT22;8060;50.948;3.146;2023-01-09T13:17:31;16.50;99.90
15922;DHT22;8060;50.948;3.146;2023-01-09T13:20:13;15.80;99.90
15922;DHT22;8060;50.948;3.146;2023-01-09T13:22:44;14.90;99.90
15922;DHT22;8060;50.948;3.146;2023-01-09T13:28:17;13.60;99.90
15922;DHT22;8060;50.948;3.146;2023-01-09T13:33:35;12.30;99.90
15922;DHT22;8060;50.948;3.146;2023-01-09T13:36:05;11.70;99.90
15922;DHT22;8060;50.948;3.146;2023-01-09T13:41:12;11.20;99.90
15922;DHT22;8060;50.948;3.146;2023-01-09T13:44:00;10.80;99.90
15922;DHT22;8060;50.948;3.146;2023-01-09T13:46:37;10.70;99.90
15922;DHT22;8060;50.948;3.146;2023-01-09T13:49:30;10.60;99.90
15922;DHT22;8060;50.948;3.146;2023-01-09T13:52:00;10.50;99.90
15922;DHT22;8060;50.948;3.146;2023-01-09T13:58:21;10.40;99.90
15922;DHT22;8060;50.948;3.146;2023-01-09T14:00:58;10.30;99.90
15922;DHT22;8060;50.948;3.146;2023-01-09T14:03:30;10.20;99.90
15922;DHT22;8060;50.948;3.146;2023-01-09T14:06:19;10.20;99.90
15922;DHT22;8060;50.948;3.146;2023-01-09T14:08:49;10.20;99.90
15922;DHT22;8060;50.948;3.146;2023-01-09T14:11:31;10.20;99.90
15922;DHT22;8060;50.948;3.146;2023-01-09T14:14:04;10.10;99.90
15922;DHT22;8060;50.948;3.146;2023-01-09T14:16:34;10.10;99.90
15922;DHT22;8060;50.948;3.146;2023-01-09T14:24:02;10.10;99.90
15922;DHT22;8060;50.948;3.146;2023-01-09T14:26:44;10.00;99.90
15922;DHT22;8060;50.948;3.146;2023-01-09T14:33:27;10.00;99.90
15922;DHT22;8060;50.948;3.146;2023-01-09T14:42:51;9.60;99.90
15922;DHT22;8060;50.948;3.146;2023-01-09T14:45:22;9.50;99.90
15922;DHT22;8060;50.948;3.146;2023-01-09T14:47:54;9.50;99.90
